createdAt,value
2019-04-19T00:01:02.685Z,12.90
2019-04-19T00:03:42.470Z,12.90
2019-04-19T00:06:38.074Z,12.90
2019-04-19T00:09:39.342Z,13.00
2019-04-19T00:12:31.268Z,13.10
2019-04-19T00:15:07.811Z,13.00
2019-04-19T00:18:00.731Z,13.10
2019-04-19T00:21:07.828Z,13.20
2019-04-19T00:23:41.585Z,13.20
2019-04-19T00:26:27.433Z,13.10
2019-04-19T00:29:25.713Z,13.10
2019-04-19T00:32:20.751Z,13.10
2019-04-19T00:34:58.781Z,13.00
2019-04-19T00:37:53.272Z,13.00
2019-04-19T00:44:32.823Z,12.90
2019-04-19T00:47:19.781Z,12.80
2019-04-19T00:50:01.171Z,12.70
2019-04-19T00:52:55.770Z,12.60
2019-04-19T00:55:21.658Z,12.60
2019-04-19T00:58:11.597Z,12.50
2019-04-19T01:00:44.606Z,12.50
2019-04-19T01:03:34.450Z,12.50
2019-04-19T01:06:14.262Z,12.50
2019-04-19T01:09:01.273Z,12.40
2019-04-19T01:11:52.784Z,12.30
2019-04-19T01:14:29.778Z,12.20
2019-04-19T01:17:11.565Z,12.20
2019-04-19T01:19:32.153Z,12.20
2019-04-19T01:22:26.192Z,12.10
2019-04-19T01:25:19.275Z,12.10
2019-04-19T01:28:06.088Z,12.10
2019-04-19T01:30:52.637Z,12.00
2019-04-19T01:33:44.148Z,11.90
2019-04-19T01:36:36.501Z,11.90
2019-04-19T01:39:33.728Z,11.80
2019-04-19T01:42:04.148Z,11.80
2019-04-19T01:48:20.588Z,11.70
2019-04-19T01:51:33.721Z,11.60
2019-04-19T01:54:36.039Z,11.60
2019-04-19T01:57:12.707Z,11.50
2019-04-19T02:00:02.046Z,11.40
2019-04-19T02:02:54.797Z,11.30
2019-04-19T02:08:42.209Z,11.30
2019-04-19T02:11:54.461Z,11.40
2019-04-19T02:14:21.191Z,11.40
2019-04-19T02:17:11.578Z,11.40
2019-04-19T02:20:02.559Z,11.30
2019-04-19T02:22:48.586Z,11.20
2019-04-19T02:25:37.581Z,11.20
2019-04-19T02:28:30.890Z,11.20
2019-04-19T02:31:37.605Z,11.10
2019-04-19T02:34:35.760Z,11.00
2019-04-19T02:40:21.624Z,10.60
2019-04-19T02:46:08.245Z,10.40
2019-04-19T02:48:54.468Z,10.40
2019-04-19T02:54:50.768Z,10.50
2019-04-19T03:01:20.807Z,10.40
2019-04-19T03:04:09.488Z,10.40
2019-04-19T03:06:32.501Z,10.30
2019-04-19T03:09:13.348Z,10.20
2019-04-19T03:12:20.183Z,10.30
2019-04-19T03:15:07.034Z,10.20
2019-04-19T03:18:03.552Z,10.20
2019-04-19T03:20:42.572Z,10.30
2019-04-19T03:23:33.016Z,10.50
2019-04-19T03:26:30.810Z,10.60
2019-04-19T03:29:14.741Z,10.90
2019-04-19T03:32:35.740Z,11.10
2019-04-19T03:37:58.962Z,11.20
2019-04-19T03:40:44.373Z,11.20
2019-04-19T03:43:51.898Z,11.30
2019-04-19T03:46:52.789Z,11.30
2019-04-19T03:52:08.935Z,11.20
2019-04-19T03:57:18.719Z,11.10
2019-04-19T03:59:54.478Z,11.10
2019-04-19T04:02:46.738Z,11.10
2019-04-19T04:11:28.644Z,11.10
2019-04-19T04:14:52.776Z,11.10
2019-04-19T04:17:26.768Z,11.00
2019-04-19T04:20:15.629Z,11.10
2019-04-19T04:23:11.840Z,11.10
2019-04-19T04:26:01.082Z,11.10
2019-04-19T04:28:57.911Z,11.10
2019-04-19T04:31:49.655Z,11.10
2019-04-19T04:34:38.820Z,11.10
2019-04-19T04:37:29.272Z,11.10
2019-04-19T04:39:47.164Z,11.10
2019-04-19T04:42:44.455Z,11.10
2019-04-19T04:54:31.258Z,11.20
2019-04-19T04:57:41.674Z,11.10
2019-04-19T05:00:14.110Z,11.00
2019-04-19T05:03:09.259Z,11.00
2019-04-19T05:05:54.293Z,11.10
2019-04-19T05:08:39.026Z,11.10
2019-04-19T05:11:22.793Z,11.20
2019-04-19T05:14:09.740Z,11.40
2019-04-19T05:17:03.853Z,11.60
2019-04-19T05:19:34.512Z,11.80
2019-04-19T05:22:11.571Z,12.00
2019-04-19T05:24:52.922Z,12.20
2019-04-19T05:27:22.075Z,12.40
2019-04-19T05:29:51.249Z,12.60
2019-04-19T05:32:41.038Z,12.80
2019-04-19T05:39:03.052Z,13.20
2019-04-19T05:41:58.536Z,13.40
2019-04-19T05:45:12.636Z,13.60
2019-04-19T05:50:35.619Z,14.00
2019-04-19T05:53:14.326Z,14.30
2019-04-19T05:55:45.602Z,14.50
2019-04-19T05:58:45.235Z,14.80
2019-04-19T06:01:30.221Z,14.80
2019-04-19T06:04:11.762Z,15.10
2019-04-19T06:06:56.424Z,15.50
2019-04-19T06:09:19.570Z,15.60
2019-04-19T06:15:09.913Z,16.00
2019-04-19T06:17:52.126Z,16.20
2019-04-19T06:20:42.380Z,16.00
2019-04-19T06:23:38.410Z,15.20
2019-04-19T06:29:14.631Z,14.60
2019-04-19T06:32:11.384Z,14.50
2019-04-19T06:34:36.084Z,14.50
2019-04-19T06:37:14.404Z,14.40
2019-04-19T06:39:39.488Z,14.40
2019-04-19T06:42:39.206Z,14.40
2019-04-19T06:45:21.510Z,14.50
2019-04-19T06:47:58.958Z,14.50
2019-04-19T06:50:44.808Z,14.60
2019-04-19T06:53:40.399Z,14.80
2019-04-19T06:56:28.335Z,14.90
2019-04-19T06:59:20.081Z,15.10
2019-04-19T07:02:02.700Z,15.40
2019-04-19T07:05:11.224Z,15.60
2019-04-19T07:08:10.023Z,16.20
2019-04-19T07:10:58.930Z,17.00
2019-04-19T07:13:36.171Z,17.50
2019-04-19T07:16:35.000Z,17.90
2019-04-19T07:19:28.876Z,18.20
2019-04-19T07:22:08.778Z,18.10
2019-04-19T07:25:12.127Z,18.30
2019-04-19T07:27:47.673Z,18.50
2019-04-19T07:30:24.675Z,18.30
2019-04-19T07:33:26.094Z,18.40
2019-04-19T07:36:26.479Z,18.30
2019-04-19T07:39:17.317Z,18.40
2019-04-19T07:42:03.402Z,18.20
2019-04-19T07:48:03.284Z,18.80
2019-04-19T07:50:53.536Z,19.30
2019-04-19T07:53:32.040Z,19.60
2019-04-19T07:56:21.898Z,19.50
2019-04-19T07:59:18.552Z,19.70
2019-04-19T08:10:08.967Z,20.10
2019-04-19T08:12:55.077Z,20.10
2019-04-19T08:15:37.277Z,20.20
2019-04-19T08:18:40.922Z,20.30
2019-04-19T08:28:55.990Z,20.00
2019-04-19T08:31:27.629Z,19.70
2019-04-19T08:33:57.890Z,19.90
2019-04-19T08:36:53.131Z,20.10
2019-04-19T08:39:50.992Z,20.50
2019-04-19T08:42:47.318Z,20.80
2019-04-19T08:45:36.694Z,20.90
2019-04-19T08:48:50.303Z,20.60
2019-04-19T08:51:46.840Z,20.70
2019-04-19T08:54:49.035Z,21.00
2019-04-19T08:57:14.784Z,21.60
2019-04-19T09:00:20.086Z,20.90
2019-04-19T09:02:50.926Z,21.00
2019-04-19T09:05:32.455Z,21.00
2019-04-19T09:08:25.111Z,20.80
2019-04-19T09:11:02.759Z,20.50
2019-04-19T09:13:44.223Z,20.90
2019-04-19T09:16:32.638Z,20.60
2019-04-19T09:19:37.435Z,20.40
2019-04-19T09:22:17.828Z,20.90
2019-04-19T09:24:55.016Z,21.40
2019-04-19T09:27:56.316Z,21.40
2019-04-19T09:33:29.611Z,21.60
2019-04-19T09:36:16.908Z,21.50
2019-04-19T09:42:03.036Z,21.20
2019-04-19T09:44:53.577Z,21.20
2019-04-19T09:47:39.810Z,21.40
2019-04-19T09:50:21.202Z,21.60
2019-04-19T09:53:17.894Z,21.70
2019-04-19T09:55:55.504Z,21.80
2019-04-19T09:58:35.437Z,21.80
2019-04-19T10:03:59.390Z,22.20
2019-04-19T10:06:39.078Z,22.50
2019-04-19T10:09:22.439Z,22.00
2019-04-19T10:12:03.981Z,21.90
2019-04-19T10:14:45.803Z,22.40
2019-04-19T10:17:27.147Z,22.50
2019-04-19T10:20:08.831Z,22.00
2019-04-19T10:22:50.955Z,22.80
2019-04-19T10:28:23.682Z,23.50
2019-04-19T10:33:58.084Z,23.00
2019-04-19T10:36:36.516Z,23.00
2019-04-19T10:39:19.491Z,23.20
2019-04-19T10:42:00.528Z,23.80
2019-04-19T10:44:42.277Z,23.50
2019-04-19T10:47:26.279Z,23.50
2019-04-19T10:50:17.008Z,23.40
2019-04-19T10:52:48.663Z,22.50
2019-04-19T10:58:14.875Z,23.30
2019-04-19T11:03:59.189Z,23.10
2019-04-19T11:06:29.352Z,23.60
2019-04-19T11:09:18.735Z,23.50
2019-04-19T11:15:04.417Z,24.00
2019-04-19T11:17:54.211Z,24.30
2019-04-19T11:20:48.499Z,24.10
2019-04-19T11:23:33.596Z,24.10
2019-04-19T11:26:23.327Z,24.00
2019-04-19T11:29:11.708Z,24.20
2019-04-19T11:32:19.892Z,23.90
2019-04-19T11:38:18.827Z,23.60
2019-04-19T11:41:09.179Z,24.20
2019-04-19T11:43:58.638Z,24.30
2019-04-19T11:46:48.009Z,24.30
2019-04-19T11:49:40.211Z,24.40
2019-04-19T11:52:24.450Z,24.60
2019-04-19T11:55:06.188Z,24.50
2019-04-19T11:57:52.547Z,24.80
2019-04-19T12:03:39.947Z,25.00
2019-04-19T12:06:20.424Z,25.60
2019-04-19T12:09:02.593Z,25.60
2019-04-19T12:11:44.450Z,25.60
2019-04-19T12:14:26.948Z,25.30
2019-04-19T12:17:09.035Z,25.20
2019-04-19T12:19:56.067Z,24.60
2019-04-19T12:22:32.948Z,25.30
2019-04-19T12:25:13.906Z,25.70
2019-04-19T12:27:55.110Z,25.00
2019-04-19T12:30:38.415Z,25.30
2019-04-19T12:33:17.494Z,25.60
2019-04-19T12:36:07.240Z,25.20
2019-04-19T12:38:56.709Z,24.80
2019-04-19T12:44:56.230Z,25.00
2019-04-19T12:47:44.999Z,25.30
2019-04-19T12:50:37.252Z,24.60
2019-04-19T12:53:37.207Z,24.80
2019-04-19T12:56:15.916Z,24.70
2019-04-19T12:59:06.151Z,25.00
2019-04-19T13:02:14.263Z,25.10
2019-04-19T13:05:22.412Z,25.00
2019-04-19T13:08:11.536Z,25.50
2019-04-19T13:11:02.959Z,24.80
2019-04-19T13:13:52.606Z,24.40
2019-04-19T13:16:42.128Z,24.80
2019-04-19T13:22:20.842Z,25.30
2019-04-19T13:25:11.994Z,25.10
2019-04-19T13:28:01.089Z,25.10
2019-04-19T13:30:54.254Z,25.20
2019-04-19T13:33:39.716Z,25.10
2019-04-19T13:42:49.007Z,24.30
2019-04-19T13:45:33.094Z,24.00
2019-04-19T13:48:14.487Z,23.60
2019-04-19T13:50:56.275Z,23.70
2019-04-19T13:53:38.553Z,23.80
2019-04-19T13:56:20.490Z,24.00
2019-04-19T13:59:01.503Z,24.00
2019-04-19T14:01:42.866Z,23.80
2019-04-19T14:04:23.731Z,23.60
2019-04-19T14:07:04.838Z,23.70
2019-04-19T14:09:45.825Z,23.60
2019-04-19T14:12:27.124Z,23.50
2019-04-19T14:15:08.713Z,23.40
2019-04-19T14:17:50.271Z,23.20
2019-04-19T14:20:38.815Z,23.30
2019-04-19T14:23:15.305Z,23.50
2019-04-19T14:25:57.035Z,23.30
2019-04-19T14:28:39.081Z,23.20
2019-04-19T14:31:20.224Z,23.20
2019-04-19T14:34:01.362Z,23.10
2019-04-19T14:36:42.699Z,23.00
2019-04-19T14:39:24.654Z,22.90
2019-04-19T14:42:05.619Z,22.90
2019-04-19T14:44:47.430Z,23.00
2019-04-19T14:47:28.688Z,22.90
2019-04-19T14:50:10.708Z,23.00
2019-04-19T14:52:53.537Z,23.00
2019-04-19T14:55:35.790Z,23.10
2019-04-19T14:58:17.224Z,22.80
2019-04-19T15:01:17.283Z,23.00
2019-04-19T15:04:04.294Z,23.00
2019-04-19T15:06:46.000Z,23.10
2019-04-19T15:09:27.677Z,23.30
2019-04-19T15:11:58.218Z,23.30
2019-04-19T15:14:47.736Z,23.10
2019-04-19T15:17:38.651Z,23.10
2019-04-19T15:20:27.774Z,23.00
2019-04-19T15:23:16.303Z,23.00
2019-04-19T15:26:05.008Z,23.00
2019-04-19T15:28:53.409Z,22.80
2019-04-19T15:31:42.038Z,23.00
2019-04-19T15:34:31.920Z,22.90
2019-04-19T15:37:20.370Z,22.80
2019-04-19T15:40:30.092Z,22.80
2019-04-19T15:43:12.961Z,22.90
2019-04-19T15:45:54.911Z,22.80
2019-04-19T15:48:42.049Z,22.90
2019-04-19T15:51:26.878Z,22.80
2019-04-19T15:54:02.471Z,22.80
2019-04-19T15:56:44.552Z,22.80
2019-04-19T15:59:27.240Z,22.70
2019-04-19T16:05:42.139Z,22.80
2019-04-19T16:08:43.066Z,22.70
2019-04-19T16:11:44.574Z,22.70
2019-04-19T16:14:25.876Z,22.60
2019-04-19T16:17:07.337Z,22.40
2019-04-19T16:19:49.111Z,22.40
2019-04-19T16:22:30.243Z,22.30
2019-04-19T16:25:12.668Z,22.40
2019-04-19T16:27:53.851Z,22.40
2019-04-19T16:30:24.040Z,22.40
2019-04-19T16:33:13.589Z,22.40
2019-04-19T16:36:02.830Z,22.50
2019-04-19T16:38:51.287Z,22.50
2019-04-19T16:41:33.101Z,22.50
2019-04-19T16:44:13.936Z,22.40
2019-04-19T16:46:55.188Z,22.30
2019-04-19T16:49:36.517Z,22.30
2019-04-19T16:52:18.507Z,22.20
2019-04-19T16:55:00.573Z,22.20
2019-04-19T16:57:42.750Z,22.10
2019-04-19T17:00:24.808Z,22.10
2019-04-19T17:03:07.060Z,22.10
2019-04-19T17:05:48.889Z,21.90
2019-04-19T17:08:30.027Z,21.90
2019-04-19T17:11:11.387Z,21.90
2019-04-19T17:13:53.140Z,21.90
2019-04-19T17:17:00.394Z,21.80
2019-04-19T17:22:40.994Z,21.70
2019-04-19T17:25:23.132Z,21.70
2019-04-19T17:28:05.071Z,21.60
2019-04-19T17:30:46.905Z,21.60
2019-04-19T17:33:28.368Z,21.60
2019-04-19T17:36:10.302Z,21.60
2019-04-19T17:38:53.828Z,21.50
2019-04-19T17:44:29.414Z,21.40
2019-04-19T17:47:11.710Z,21.30
2019-04-19T17:49:53.154Z,21.30
2019-04-19T17:52:35.840Z,21.20
2019-04-19T17:55:25.073Z,21.20
2019-04-19T17:58:01.155Z,21.20
2019-04-19T18:00:42.112Z,21.10
2019-04-19T18:03:22.969Z,20.90
2019-04-19T18:06:04.043Z,20.90
2019-04-19T18:08:47.100Z,20.80
2019-04-19T18:11:30.835Z,20.60
2019-04-19T18:14:11.583Z,20.50
2019-04-19T18:16:52.517Z,20.30
2019-04-19T18:19:38.102Z,20.20
2019-04-19T18:22:31.506Z,20.10
2019-04-19T18:25:00.700Z,20.00
2019-04-19T18:27:47.381Z,19.90
2019-04-19T18:30:24.271Z,19.80
2019-04-19T18:33:08.821Z,19.80
2019-04-19T18:35:52.256Z,19.70
2019-04-19T18:38:32.842Z,19.60
2019-04-19T18:41:15.423Z,19.50
2019-04-19T18:44:07.724Z,19.40
2019-04-19T18:46:38.648Z,19.20
2019-04-19T18:49:21.208Z,19.00
2019-04-19T18:52:05.702Z,18.80
2019-04-19T18:54:54.095Z,18.60
2019-04-19T18:57:28.591Z,18.40
2019-04-19T19:00:01.618Z,18.10
2019-04-19T19:02:30.340Z,17.80
2019-04-19T19:05:04.899Z,17.60
2019-04-19T19:07:31.157Z,17.40
2019-04-19T19:10:04.062Z,17.30
2019-04-19T19:12:34.899Z,17.20
2019-04-19T19:15:04.595Z,17.20
2019-04-19T19:17:34.100Z,17.20
2019-04-19T19:20:09.365Z,17.10
2019-04-19T19:22:52.977Z,17.10
2019-04-19T19:25:21.402Z,17.00
2019-04-19T19:27:38.293Z,16.90
2019-04-19T19:30:09.194Z,16.80
2019-04-19T19:32:42.619Z,16.70
2019-04-19T19:35:15.157Z,16.50
2019-04-19T19:37:43.149Z,16.30
2019-04-19T19:40:22.462Z,16.10
2019-04-19T19:43:02.533Z,15.90
2019-04-19T19:45:32.239Z,15.70
2019-04-19T19:48:18.910Z,15.50
2019-04-19T19:50:54.136Z,15.40
2019-04-19T19:53:32.492Z,15.20
2019-04-19T19:55:54.910Z,15.10
2019-04-19T19:58:17.045Z,14.90
2019-04-19T20:00:55.585Z,14.80
2019-04-19T20:03:13.550Z,14.60
2019-04-19T20:05:40.473Z,14.60
2019-04-19T20:08:09.196Z,14.60
2019-04-19T20:10:43.301Z,14.50
2019-04-19T20:17:14.701Z,14.50
2019-04-19T20:19:48.278Z,14.50
2019-04-19T20:22:15.658Z,14.40
2019-04-19T20:24:55.253Z,14.40
2019-04-19T20:27:19.695Z,14.30
2019-04-19T20:29:51.768Z,14.20
2019-04-19T20:32:21.226Z,14.10
2019-04-19T20:34:49.990Z,14.10
2019-04-19T20:37:24.898Z,14.00
2019-04-19T20:39:53.220Z,14.00
2019-04-19T20:42:38.072Z,13.90
2019-04-19T20:45:02.700Z,13.90
2019-04-19T20:47:30.725Z,13.90
2019-04-19T20:49:56.448Z,13.80
2019-04-19T20:52:48.297Z,13.80
2019-04-19T20:55:26.216Z,13.70
2019-04-19T20:57:54.436Z,13.60
2019-04-19T21:00:14.516Z,13.60
2019-04-19T21:02:44.073Z,13.40
2019-04-19T21:05:13.714Z,13.30
2019-04-19T21:07:48.333Z,13.20
2019-04-19T21:10:16.814Z,13.10
2019-04-19T21:12:45.364Z,12.90
2019-04-19T21:15:23.804Z,12.80
2019-04-19T21:17:48.433Z,12.80
2019-04-19T21:20:21.228Z,12.80
2019-04-19T21:22:48.659Z,12.80
2019-04-19T21:25:23.117Z,12.90
2019-04-19T21:27:54.594Z,12.90
2019-04-19T21:30:20.934Z,12.90
2019-04-19T21:32:50.391Z,12.70
2019-04-19T21:35:20.878Z,12.60
2019-04-19T21:37:51.183Z,12.50
2019-04-19T21:40:28.212Z,12.50
2019-04-19T21:42:56.207Z,12.30
2019-04-19T21:45:30.049Z,12.30
2019-04-19T21:47:56.990Z,12.40
2019-04-19T21:50:32.104Z,12.40
2019-04-19T21:53:02.071Z,12.40
2019-04-19T21:55:35.720Z,12.40
2019-04-19T21:58:07.044Z,12.40
2019-04-19T22:01:10.710Z,12.40
2019-04-19T22:03:36.724Z,12.40
2019-04-19T22:06:16.416Z,12.30
2019-04-19T22:08:41.671Z,12.20
2019-04-19T22:11:09.359Z,12.00
2019-04-19T22:13:41.733Z,11.80
2019-04-19T22:16:10.603Z,11.80
2019-04-19T22:18:46.648Z,11.80
2019-04-19T22:21:12.356Z,11.70
2019-04-19T22:26:21.076Z,11.40
2019-04-19T22:38:47.847Z,11.20
2019-04-19T22:46:19.565Z,11.10
2019-04-19T22:48:54.318Z,11.00
2019-04-19T22:51:20.409Z,10.90
2019-04-19T22:53:50.529Z,10.80
2019-04-19T22:56:28.110Z,10.70
2019-04-19T22:58:51.685Z,10.70
2019-04-19T23:01:43.562Z,10.70
2019-04-19T23:04:16.135Z,10.60
2019-04-19T23:06:42.810Z,10.50
2019-04-19T23:09:16.445Z,10.50
2019-04-19T23:11:43.771Z,10.30
2019-04-19T23:14:14.837Z,10.80
2019-04-19T23:16:50.518Z,11.00
2019-04-19T23:19:15.122Z,11.10
2019-04-19T23:21:48.343Z,11.20
2019-04-19T23:24:16.728Z,11.30
2019-04-19T23:27:07.099Z,11.30
2019-04-19T23:29:24.400Z,11.30
2019-04-19T23:31:51.233Z,11.40
2019-04-19T23:34:21.227Z,11.50
2019-04-19T23:37:00.003Z,11.60
2019-04-19T23:39:23.319Z,11.50
2019-04-19T23:41:53.307Z,11.40
